Time;durP1;ratioP1;P1;durP2;ratioP2;P2;SDS_P1;SDS_P2;PMS_P1;PMS_P2;Temp;Humidity;BMP_temperature;BMP_pressure;BME280_temperature;BME280_humidity;BME280_pressure;Samples;Min_cycle;Max_cycle;Signal;HPM_P1;HPM_P2
2023/12/20 00:00:27;;;;;;;27.80;23.67;;;;;;;1.82;67.97;98984.78;5089887;28;20041;-67
2023/12/20 00:02:53;;;;;;;29.27;24.23;;;;;;;1.96;67.37;98978.34;5089709;28;20052;-67
2023/12/20 00:05:20;;;;;;;30.30;24.90;;;;;;;1.74;67.51;98952.75;5089550;28;20094;-68
2023/12/20 00:07:48;;;;;;;28.08;24.15;;;;;;;2.04;66.78;98981.59;5089462;28;20097;-67
2023/12/20 00:10:15;;;;;;;28.65;24.27;;;;;;;2.09;66.83;98998.00;5089497;28;20059;-68
2023/12/20 00:12:41;;;;;;;28.77;23.65;;;;;;;2.10;66.62;98997.13;5089063;28;20040;-67
2023/12/20 00:15:08;;;;;;;30.27;25.67;;;;;;;2.10;66.38;98999.72;5089116;28;20107;-67
2023/12/20 00:17:35;;;;;;;27.73;24.67;;;;;;;2.09;66.42;98992.78;5089072;28;20045;-68
2023/12/20 00:20:02;;;;;;;27.77;22.50;;;;;;;2.07;66.35;98992.84;5088735;28;20115;-68
2023/12/20 00:22:29;;;;;;;29.35;24.90;;;;;;;0.79;66.07;98757.66;5088583;28;20048;-68
2023/12/20 00:24:57;;;;;;;26.92;23.42;;;;;;;2.12;66.11;98984.88;5089120;28;20048;-69
2023/12/20 00:27:23;;;;;;;34.25;25.10;;;;;;;2.14;66.11;98980.44;5088831;28;20048;-68
2023/12/20 00:29:50;;;;;;;29.45;23.73;;;;;;;2.11;66.12;98981.41;5088736;28;20300;-68
2023/12/20 00:32:17;;;;;;;27.92;24.67;;;;;;;2.07;66.26;98985.00;5088435;28;20089;-68
2023/12/20 00:34:44;;;;;;;26.20;23.33;;;;;;;2.03;66.56;98985.13;5088742;28;20249;-67
2023/12/20 00:37:11;;;;;;;27.63;23.00;;;;;;;1.97;66.83;98983.50;5088351;28;20037;-68
2023/12/20 00:39:38;;;;;;;28.52;22.55;;;;;;;2.07;66.36;98995.44;5088856;28;20049;-68
2023/12/20 00:42:06;;;;;;;27.23;23.13;;;;;;;2.11;66.12;98991.84;5088503;28;20040;-68
2023/12/20 00:44:32;;;;;;;29.85;23.13;;;;;;;2.16;65.76;98970.81;5088496;28;20090;-68
2023/12/20 00:46:59;;;;;;;29.83;23.10;;;;;;;2.13;65.90;98976.97;5087435;28;20056;-68
2023/12/20 00:49:26;;;;;;;28.05;22.48;;;;;;;2.12;65.88;98977.88;5088414;28;20106;-67
2023/12/20 00:51:52;;;;;;;27.55;22.98;;;;;;;2.09;66.28;99000.63;5086716;28;20040;-67
2023/12/20 00:54:19;;;;;;;28.63;22.90;;;;;;;2.11;66.21;98986.63;5088649;28;20267;-67
2023/12/20 00:56:46;;;;;;;26.80;22.65;;;;;;;2.03;66.89;98985.97;5088354;28;20044;-68
2023/12/20 00:59:14;;;;;;;26.58;22.92;;;;;;;2.09;66.45;98988.41;5088013;28;20043;-68
2023/12/20 01:01:41;;;;;;;26.85;22.40;;;;;;;2.09;66.78;98996.25;5088542;28;20044;-68
2023/12/20 01:04:08;;;;;;;26.73;22.60;;;;;;;2.09;66.61;98996.25;5088603;28;20040;-68
2023/12/20 01:06:35;;;;;;;25.58;22.88;;;;;;;2.11;66.86;98988.38;5088265;28;20044;-68
2023/12/20 01:09:01;;;;;;;25.55;21.45;;;;;;;2.16;66.82;98973.44;5088081;28;20059;-69
2023/12/20 01:11:28;;;;;;;26.67;21.92;;;;;;;2.14;66.64;98976.09;5088335;28;20045;-68
2023/12/20 01:13:55;;;;;;;29.70;22.95;;;;;;;2.02;66.38;98942.44;5088060;28;20044;-68
2023/12/20 01:16:23;;;;;;;27.80;21.85;;;;;;;2.22;66.62;98981.97;5088306;28;20052;-69
2023/12/20 01:18:50;;;;;;;27.60;23.85;;;;;;;2.20;67.04;98973.31;5087949;28;20094;-68
2023/12/20 01:21:16;;;;;;;28.73;22.38;;;;;;;2.24;66.79;98966.22;5087590;28;20116;-69
2023/12/20 01:23:43;;;;;;;25.08;21.00;;;;;;;2.29;66.85;98963.50;5087534;28;20193;-68
2023/12/20 01:26:10;;;;;;;25.38;20.90;;;;;;;2.19;67.46;98963.75;5088024;28;20086;-68
2023/12/20 01:28:37;;;;;;;27.60;22.52;;;;;;;2.15;68.11;98959.50;5087630;28;20044;-68
2023/12/20 01:31:04;;;;;;;26.45;22.08;;;;;;;2.19;67.55;98961.13;5087677;28;20199;-68
2023/12/20 01:33:32;;;;;;;28.20;20.58;;;;;;;2.30;67.09;98967.81;5087360;28;20044;-68
2023/12/20 01:35:58;;;;;;;23.95;20.35;;;;;;;2.33;66.98;98952.03;5086439;28;20041;-68
2023/12/20 01:38:25;;;;;;;24.27;21.45;;;;;;;2.30;67.21;98947.75;5087572;28;20146;-68
2023/12/20 01:40:52;;;;;;;25.15;20.60;;;;;;;2.27;67.26;98944.38;5087499;28;20281;-68
2023/12/20 01:43:18;;;;;;;26.35;20.63;;;;;;;2.27;67.42;98953.06;5087479;28;20044;-68
2023/12/20 01:45:45;;;;;;;24.92;19.73;;;;;;;2.23;67.89;98943.59;5087378;28;20052;-68
2023/12/20 01:48:12;;;;;;;25.75;21.48;;;;;;;2.11;68.24;98947.41;5087246;28;20040;-69
2023/12/20 01:50:41;;;;;;;25.52;19.75;;;;;;;2.18;67.75;98938.50;5086987;28;20052;-68
2023/12/20 01:53:09;;;;;;;23.10;19.77;;;;;;;2.23;67.41;98931.38;5087242;28;20063;-68
2023/12/20 01:55:40;;;;;;;24.10;20.15;;;;;;;2.21;67.42;98920.09;5086923;28;20115;-68
2023/12/20 01:58:07;;;;;;;23.35;18.58;;;;;;;2.17;67.58;98926.31;5087099;28;20235;-68
2023/12/20 02:00:35;;;;;;;22.85;18.67;;;;;;;1.86;67.45;98863.59;5087020;28;20041;-68
2023/12/20 02:03:02;;;;;;;21.83;18.88;;;;;;;2.18;67.36;98912.34;5085680;28;20305;-68
2023/12/20 02:05:30;;;;;;;25.60;19.13;;;;;;;1.52;67.34;98802.69;5086968;28;20066;-68
2023/12/20 02:07:58;;;;;;;24.98;21.63;;;;;;;2.13;67.56;98889.84;5087090;28;20044;-68
2023/12/20 02:10:26;;;;;;;26.40;21.45;;;;;;;1.89;67.74;98842.59;5086587;28;20128;-68
2023/12/20 02:12:52;;;;;;;24.25;19.30;;;;;;;2.09;67.67;98890.84;5087105;28;20052;-68
2023/12/20 02:15:19;;;;;;;27.90;21.60;;;;;;;2.06;67.60;98877.84;5086734;28;20048;-69
2023/12/20 02:17:48;;;;;;;23.98;19.88;;;;;;;1.96;68.01;98879.88;5086356;28;20050;-68
2023/12/20 02:20:14;;;;;;;24.40;20.95;;;;;;;1.86;67.98;98865.34;5086681;28;20296;-68
2023/12/20 02:22:42;;;;;;;25.13;20.52;;;;;;;1.72;68.41;98864.88;5086150;28;20075;-68
2023/12/20 02:25:09;;;;;;;22.23;18.88;;;;;;;1.68;68.35;98858.88;5086471;28;20052;-68
2023/12/20 02:27:36;;;;;;;25.38;20.48;;;;;;;1.56;68.75;98880.94;5086537;28;20044;-68
2023/12/20 02:30:03;;;;;;;23.40;20.63;;;;;;;1.65;68.39;98853.72;5086410;28;20044;-68
2023/12/20 02:32:30;;;;;;;22.27;19.42;;;;;;;1.47;68.49;98817.63;5086407;28;20056;-68
2023/12/20 02:34:57;;;;;;;24.90;20.08;;;;;;;1.65;68.05;98842.44;5086124;28;20297;-68
2023/12/20 02:37:24;;;;;;;22.92;17.60;;;;;;;1.48;68.53;98837.63;5086433;28;20292;-68
2023/12/20 02:39:52;;;;;;;19.95;17.00;;;;;;;1.57;68.40;98837.38;5086331;28;20048;-68
2023/12/20 02:42:18;;;;;;;23.92;18.98;;;;;;;1.54;67.96;98830.47;5086857;28;20235;-68
2023/12/20 02:44:45;;;;;;;21.73;17.67;;;;;;;1.62;67.31;98824.22;5085934;28;20089;-68
2023/12/20 02:47:11;;;;;;;21.52;17.33;;;;;;;1.69;67.24;98825.78;5086219;28;20052;-68
2023/12/20 02:49:38;;;;;;;21.02;17.73;;;;;;;1.67;66.85;98831.03;5086116;28;20040;-67
2023/12/20 02:52:06;;;;;;;18.23;15.30;;;;;;;1.67;66.61;98820.59;5086131;28;20050;-67
2023/12/20 02:54:32;;;;;;;17.65;12.40;;;;;;;1.82;66.01;98817.53;5086382;28;20056;-69
2023/12/20 02:57:00;;;;;;;9.68;7.57;;;;;;;2.11;64.98;98819.31;5086090;28;20107;-67
2023/12/20 02:59:27;;;;;;;5.53;4.57;;;;;;;2.43;63.81;98807.88;5086053;28;20051;-68
2023/12/20 03:01:54;;;;;;;3.78;3.22;;;;;;;2.74;62.88;98810.38;5086030;28;20094;-67
2023/12/20 03:04:20;;;;;;;4.13;3.55;;;;;;;3.00;61.63;98811.28;5085982;28;20040;-68
2023/12/20 03:06:47;;;;;;;4.88;3.65;;;;;;;3.26;60.81;98781.59;5086191;28;20040;-68
2023/12/20 03:09:13;;;;;;;10.10;8.73;;;;;;;3.10;61.47;98794.38;5085612;28;20040;-68
2023/12/20 03:11:40;;;;;;;12.57;10.25;;;;;;;2.90;61.26;98788.94;5085118;28;20066;-69
2023/12/20 03:14:08;;;;;;;11.63;10.43;;;;;;;2.87;61.65;98803.00;5085810;28;20098;-69
2023/12/20 03:16:35;;;;;;;13.88;10.82;;;;;;;2.64;61.44;98764.50;5086117;28;20125;-69
2023/12/20 03:19:01;;;;;;;12.88;11.57;;;;;;;2.70;60.92;98811.38;5085529;28;20231;-68
2023/12/20 03:21:28;;;;;;;12.27;10.75;;;;;;;2.69;61.16;98820.13;5085920;28;20060;-69
2023/12/20 03:23:56;;;;;;;13.52;11.60;;;;;;;2.59;60.80;98815.25;5085468;28;20048;-69
2023/12/20 03:26:23;;;;;;;14.93;11.93;;;;;;;2.57;60.45;98810.06;5084633;28;20045;-69
2023/12/20 03:28:50;;;;;;;12.60;11.25;;;;;;;2.50;59.79;98817.25;5085531;28;20056;-69
2023/12/20 03:31:18;;;;;;;13.88;11.13;;;;;;;2.46;59.93;98806.94;5085673;28;20044;-69
2023/12/20 03:33:44;;;;;;;13.15;11.75;;;;;;;2.48;60.25;98812.97;5085925;28;20102;-68
2023/12/20 03:36:11;;;;;;;13.65;11.13;;;;;;;2.41;60.52;98812.31;5085405;28;20098;-68
2023/12/20 03:38:37;;;;;;;12.63;11.32;;;;;;;2.51;60.72;98815.50;5085884;28;20177;-68
2023/12/20 03:41:05;;;;;;;12.77;11.32;;;;;;;2.32;60.45;98769.88;5085327;28;20052;-68
2023/12/20 03:43:31;;;;;;;12.30;10.77;;;;;;;2.50;60.15;98795.47;5085849;28;20289;-69
2023/12/20 03:45:58;;;;;;;13.15;11.13;;;;;;;2.52;60.30;98802.34;5085830;28;20056;-68
2023/12/20 03:48:26;;;;;;;13.85;11.52;;;;;;;2.55;60.21;98798.78;5085548;28;20048;-69
2023/12/20 03:50:53;;;;;;;12.15;10.85;;;;;;;2.55;60.02;98799.66;5085413;28;20197;-68
2023/12/20 03:53:20;;;;;;;13.48;12.02;;;;;;;2.50;59.86;98806.78;5085536;28;20056;-69
2023/12/20 03:55:46;;;;;;;11.43;10.13;;;;;;;2.46;59.84;98801.69;5085720;28;20091;-69
2023/12/20 03:58:13;;;;;;;12.27;11.00;;;;;;;2.41;59.84;98796.63;5085433;28;20197;-68
2023/12/20 04:00:40;;;;;;;12.82;10.85;;;;;;;2.49;60.25;98805.06;5085156;28;20036;-68
2023/12/20 04:03:06;;;;;;;10.95;9.88;;;;;;;2.55;60.27;98806.63;5085172;28;20048;-68
2023/12/20 04:05:34;;;;;;;12.48;10.60;;;;;;;2.59;60.31;98810.88;5084260;28;20044;-68
2023/12/20 04:08:03;;;;;;;11.10;10.00;;;;;;;2.60;60.12;98802.13;5085082;28;20217;-69
2023/12/20 04:10:29;;;;;;;11.48;10.02;;;;;;;2.61;60.37;98798.59;5085030;28;20040;-69
2023/12/20 04:12:56;;;;;;;11.20;9.50;;;;;;;2.68;60.25;98802.72;5085313;28;20040;-69
2023/12/20 04:15:23;;;;;;;11.23;10.05;;;;;;;2.66;60.00;98803.69;5085049;28;20040;-69
2023/12/20 04:17:49;;;;;;;11.52;10.10;;;;;;;2.63;59.78;98793.31;5085199;28;20178;-69
2023/12/20 04:20:16;;;;;;;12.27;10.40;;;;;;;2.68;60.11;98799.25;5085023;28;20037;-69
2023/12/20 04:22:44;;;;;;;13.73;10.52;;;;;;;2.46;59.56;98772.94;5084757;28;20224;-69
2023/12/20 04:25:10;;;;;;;13.07;10.35;;;;;;;2.68;60.00;98804.50;5085635;28;20052;-69
2023/12/20 04:27:37;;;;;;;13.20;10.48;;;;;;;2.67;59.65;98802.78;5089131;28;20044;-69
2023/12/20 04:30:04;;;;;;;11.70;9.90;;;;;;;2.66;59.77;98804.53;5088792;28;20101;-69
2023/12/20 04:32:31;;;;;;;12.80;10.00;;;;;;;2.73;59.88;98794.72;5088540;28;20052;-69
2023/12/20 04:34:58;;;;;;;10.25;7.03;;;;;;;2.88;59.32;98795.09;5088445;28;20052;-69
2023/12/20 04:37:25;;;;;;;8.43;6.20;;;;;;;2.95;59.17;98798.34;5088233;28;20048;-69
2023/12/20 04:39:52;;;;;;;7.72;6.28;;;;;;;3.05;59.10;98804.13;5088618;28;20048;-69
2023/12/20 04:42:19;;;;;;;7.65;6.55;;;;;;;3.14;58.95;98806.44;5088850;28;20040;-69
2023/12/20 04:44:46;;;;;;;8.93;5.75;;;;;;;3.22;58.54;98796.56;5088522;28;20044;-69
2023/12/20 04:47:12;;;;;;;7.78;5.53;;;;;;;3.25;58.86;98801.69;5088497;28;20063;-69
2023/12/20 04:49:39;;;;;;;7.85;5.63;;;;;;;3.39;58.68;98791.59;5088414;28;20051;-69
2023/12/20 04:52:06;;;;;;;7.03;5.03;;;;;;;3.52;58.50;98792.88;5088684;28;20292;-69
2023/12/20 04:54:33;;;;;;;5.05;4.00;;;;;;;3.63;58.80;98800.34;5088447;28;20120;-69
2023/12/20 04:57:01;;;;;;;4.88;3.92;;;;;;;3.74;58.58;98794.72;5088392;28;20044;-69
2023/12/20 04:59:27;;;;;;;5.47;4.20;;;;;;;3.79;58.94;98798.88;5087792;28;20170;-69
2023/12/20 05:01:54;;;;;;;5.70;3.90;;;;;;;3.41;59.04;98737.41;5088269;28;20052;-69
2023/12/20 05:04:21;;;;;;;5.22;3.90;;;;;;;4.01;59.63;98795.47;5088234;28;20040;-69
2023/12/20 05:06:49;;;;;;;6.22;3.92;;;;;;;4.13;59.91;98793.25;5087964;28;20360;-69
2023/12/20 05:09:16;;;;;;;6.25;3.70;;;;;;;4.23;60.15;98785.06;5088067;28;20048;-69
2023/12/20 05:11:42;;;;;;;5.45;4.28;;;;;;;4.32;60.05;98782.06;5088096;28;20044;-69
2023/12/20 05:14:10;;;;;;;4.72;3.72;;;;;;;4.40;60.86;98780.88;5087992;28;20197;-69
2023/12/20 05:16:37;;;;;;;4.13;3.20;;;;;;;4.47;60.93;98773.59;5088291;28;20090;-69
2023/12/20 05:19:06;;;;;;;4.43;3.55;;;;;;;4.55;61.16;98779.41;5087511;28;20044;-69
2023/12/20 05:21:33;;;;;;;5.43;3.80;;;;;;;4.68;61.19;98785.88;5087907;28;20114;-70
2023/12/20 05:24:00;;;;;;;5.20;3.45;;;;;;;4.51;61.74;98759.44;5088105;28;20052;-69
2023/12/20 05:26:26;;;;;;;6.00;3.78;;;;;;;4.75;62.34;98792.56;5087819;28;20041;-69
2023/12/20 05:28:53;;;;;;;4.53;3.90;;;;;;;4.48;62.51;98720.22;5087500;28;20049;-69
2023/12/20 05:31:21;;;;;;;7.07;3.85;;;;;;;4.88;62.53;98789.47;5087652;28;20044;-69
2023/12/20 05:33:48;;;;;;;4.80;3.40;;;;;;;4.97;62.41;98786.47;5087921;28;20086;-69
2023/12/20 05:36:15;;;;;;;6.00;4.03;;;;;;;5.01;62.60;98782.81;5087335;28;20090;-69
2023/12/20 05:38:41;;;;;;;5.03;3.83;;;;;;;5.06;62.72;98786.09;5087595;28;20107;-69
2023/12/20 05:41:08;;;;;;;5.43;3.80;;;;;;;5.10;62.84;98777.16;5087456;28;20059;-69
2023/12/20 05:43:35;;;;;;;8.52;5.80;;;;;;;5.16;62.83;98786.56;5087445;28;20040;-69
2023/12/20 05:46:01;;;;;;;5.32;3.78;;;;;;;5.22;62.76;98788.94;5087296;28;20053;-69
2023/12/20 05:48:29;;;;;;;5.18;3.40;;;;;;;5.30;62.44;98797.34;5087068;28;20094;-69
2023/12/20 05:50:56;;;;;;;5.28;4.00;;;;;;;5.16;62.49;98752.41;5087228;28;20040;-69
2023/12/20 05:53:23;;;;;;;6.30;3.92;;;;;;;5.36;62.42;98797.09;5087000;28;20106;-69
2023/12/20 05:55:49;;;;;;;7.75;4.82;;;;;;;5.39;62.57;98787.28;5087407;28;20098;-69
2023/12/20 05:58:16;;;;;;;6.72;4.40;;;;;;;5.43;62.35;98790.66;5087157;28;20040;-69
2023/12/20 06:00:43;;;;;;;5.22;4.13;;;;;;;5.47;62.50;98802.72;5087080;28;20074;-69
2023/12/20 06:03:09;;;;;;;4.90;3.50;;;;;;;5.52;62.21;98792.03;5087064;28;20119;-70
2023/12/20 06:05:37;;;;;;;4.57;3.50;;;;;;;5.57;62.47;98790.03;5086701;28;20040;-69
2023/12/20 06:08:04;;;;;;;4.72;3.50;;;;;;;5.60;62.35;98792.53;5087242;28;20052;-70
2023/12/20 06:10:31;;;;;;;5.22;3.80;;;;;;;5.65;62.27;98795.81;5086800;28;20098;-69
2023/12/20 06:12:58;;;;;;;4.55;3.65;;;;;;;5.42;62.14;98755.63;5087118;28;20040;-69
2023/12/20 06:15:25;;;;;;;4.82;3.28;;;;;;;5.68;62.06;98795.69;5086540;28;20052;-69
2023/12/20 06:17:52;;;;;;;4.10;3.58;;;;;;;5.74;62.15;98798.03;5086768;28;20070;-69
2023/12/20 06:20:18;;;;;;;4.88;3.38;;;;;;;5.80;61.71;98796.91;5086384;28;20040;-69
2023/12/20 06:22:46;;;;;;;4.57;3.25;;;;;;;5.81;61.51;98799.47;5086216;28;20075;-70
2023/12/20 06:25:13;;;;;;;4.38;3.53;;;;;;;5.84;61.22;98801.97;5086600;28;20081;-69
2023/12/20 06:27:40;;;;;;;4.80;3.50;;;;;;;5.90;61.09;98801.69;5085378;28;20041;-70
2023/12/20 06:30:09;;;;;;;5.45;4.30;;;;;;;5.93;60.73;98811.22;5086059;28;20052;-69
2023/12/20 06:32:35;;;;;;;5.55;3.58;;;;;;;5.54;60.40;98754.22;5086097;28;20067;-70
2023/12/20 06:35:02;;;;;;;5.55;3.78;;;;;;;5.94;60.17;98810.28;5086457;28;20036;-69
2023/12/20 06:37:29;;;;;;;4.47;3.17;;;;;;;5.97;60.06;98821.53;5085762;28;20219;-70
2023/12/20 06:39:57;;;;;;;4.68;3.50;;;;;;;5.97;60.00;98828.56;5086304;28;20040;-69
2023/12/20 06:42:23;;;;;;;6.15;3.50;;;;;;;6.03;60.04;98837.03;5086204;28;20108;-69
2023/12/20 06:44:50;;;;;;;4.32;3.25;;;;;;;6.06;59.78;98834.28;5086213;28;20052;-70
2023/12/20 06:47:17;;;;;;;5.32;3.92;;;;;;;6.06;60.03;98839.53;5085031;28;20090;-70
2023/12/20 06:49:43;;;;;;;3.60;3.10;;;;;;;5.97;59.90;98810.16;5085639;28;20230;-69
2023/12/20 06:52:10;;;;;;;3.92;3.22;;;;;;;6.19;60.18;98828.47;5086164;28;20052;-70
2023/12/20 06:54:36;;;;;;;4.30;3.35;;;;;;;6.17;60.22;98825.91;5086152;28;20118;-69
2023/12/20 06:57:05;;;;;;;5.15;3.47;;;;;;;6.19;60.44;98800.38;5086024;28;20044;-69
2023/12/20 06:59:31;;;;;;;7.60;3.70;;;;;;;6.19;60.45;98791.63;5085979;28;20052;-70
2023/12/20 07:01:58;;;;;;;4.03;3.33;;;;;;;6.21;60.38;98787.13;5085707;28;20044;-70
2023/12/20 07:04:25;;;;;;;4.82;3.83;;;;;;;6.23;60.29;98783.50;5085735;28;20040;-71
2023/12/20 07:06:53;;;;;;;5.40;3.65;;;;;;;6.28;60.09;98780.66;5086073;28;20052;-70
2023/12/20 07:09:20;;;;;;;4.85;3.95;;;;;;;6.26;59.92;98788.63;5085561;28;20044;-70
2023/12/20 07:11:47;;;;;;;4.95;3.60;;;;;;;6.28;59.62;98784.16;5085772;28;20041;-70
2023/12/20 07:14:15;;;;;;;4.85;4.10;;;;;;;6.28;59.48;98796.47;5085544;28;20049;-70
2023/12/20 07:16:41;;;;;;;10.85;4.07;;;;;;;6.33;59.00;98805.00;5085599;28;20048;-70
2023/12/20 07:19:08;;;;;;;4.65;3.78;;;;;;;6.32;59.00;98801.50;5085801;28;20051;-70
2023/12/20 07:21:34;;;;;;;4.53;3.90;;;;;;;6.33;59.21;98810.25;5085162;28;20202;-70
2023/12/20 07:24:01;;;;;;;5.00;4.05;;;;;;;6.38;59.19;98817.00;5085778;28;20044;-69
2023/12/20 07:26:28;;;;;;;4.40;3.65;;;;;;;6.37;59.42;98838.13;5085647;28;20040;-70
2023/12/20 07:28:54;;;;;;;4.60;3.83;;;;;;;6.41;59.90;98850.22;5085684;28;20052;-70
2023/12/20 07:31:23;;;;;;;5.80;3.90;;;;;;;6.36;60.63;98857.50;5085344;28;20040;-70
2023/12/20 07:33:50;;;;;;;5.47;3.53;;;;;;;6.33;61.17;98842.69;5085050;28;20041;-70
2023/12/20 07:36:17;;;;;;;6.35;3.72;;;;;;;6.34;61.50;98843.53;5085609;28;20109;-70
2023/12/20 07:38:44;;;;;;;7.22;4.13;;;;;;;6.17;61.56;98814.53;5085916;28;20044;-69
2023/12/20 07:41:11;;;;;;;6.43;3.75;;;;;;;6.30;61.50;98850.72;5085206;28;20177;-70
2023/12/20 07:43:37;;;;;;;5.10;3.83;;;;;;;6.29;61.46;98862.19;5085187;28;20235;-70
2023/12/20 07:46:07;;;;;;;6.15;3.90;;;;;;;6.30;61.20;98839.34;5085620;28;20052;-70
2023/12/20 07:48:36;;;;;;;5.20;3.78;;;;;;;5.59;61.46;98722.47;5085199;28;20051;-70
2023/12/20 07:51:03;;;;;;;6.82;4.55;;;;;;;6.29;61.68;98846.38;5085118;28;20056;-70
2023/12/20 07:53:30;;;;;;;5.20;3.72;;;;;;;6.26;61.92;98832.50;5085188;28;20044;-70
2023/12/20 07:55:56;;;;;;;6.07;4.05;;;;;;;6.23;62.85;98857.19;5085124;28;20040;-70
2023/12/20 07:58:23;;;;;;;5.82;4.15;;;;;;;6.21;63.46;98855.56;5085393;28;20074;-70
2023/12/20 08:00:49;;;;;;;4.85;3.80;;;;;;;6.25;63.36;98857.13;5088416;28;20200;-70
2023/12/20 08:03:16;;;;;;;7.00;4.70;;;;;;;6.24;63.46;98850.16;5089310;28;20045;-70
2023/12/20 08:05:44;;;;;;;6.05;4.75;;;;;;;6.21;63.77;98852.94;5089579;28;20300;-70
2023/12/20 08:08:11;;;;;;;5.60;3.92;;;;;;;6.17;64.30;98854.84;5089281;28;20097;-70
2023/12/20 08:10:37;;;;;;;6.72;4.70;;;;;;;6.15;63.68;98869.84;5089482;28;20040;-70
2023/12/20 08:13:04;;;;;;;6.43;4.97;;;;;;;6.19;63.21;98875.81;5089201;28;20103;-70
2023/12/20 08:15:31;;;;;;;6.90;4.40;;;;;;;6.16;63.42;98863.66;5089099;28;20284;-70
2023/12/20 08:17:57;;;;;;;4.70;4.03;;;;;;;6.21;62.82;98869.56;5089027;28;20086;-70
2023/12/20 08:20:24;;;;;;;5.53;4.10;;;;;;;6.22;62.81;98871.28;5089272;28;20108;-70
2023/12/20 08:22:52;;;;;;;5.68;3.95;;;;;;;6.20;62.98;98867.00;5088469;28;20339;-70
2023/12/20 08:25:19;;;;;;;4.68;3.70;;;;;;;6.16;62.62;98865.44;5088535;28;20044;-70
2023/12/20 08:27:45;;;;;;;5.07;3.92;;;;;;;5.97;62.51;98844.34;5088899;28;20098;-70
2023/12/20 08:30:12;;;;;;;5.10;4.18;;;;;;;6.12;62.44;98877.00;5088787;28;20304;-70
2023/12/20 08:32:39;;;;;;;4.85;4.05;;;;;;;6.14;62.26;98877.81;5088784;28;20044;-70
2023/12/20 08:35:06;;;;;;;5.95;4.22;;;;;;;6.15;62.37;98890.88;5088468;28;20093;-70
2023/12/20 08:37:33;;;;;;;8.10;4.97;;;;;;;6.13;62.41;98884.00;5088674;28;20041;-70
2023/12/20 08:40:01;;;;;;;6.30;4.63;;;;;;;6.11;62.31;98889.31;5088637;28;20044;-70
2023/12/20 08:42:30;;;;;;;6.13;4.32;;;;;;;6.15;62.37;98876.88;5088575;28;20281;-69
2023/12/20 08:44:58;;;;;;;5.72;5.13;;;;;;;6.15;62.37;98877.72;5088424;28;20055;-70
2023/12/20 08:47:25;;;;;;;5.57;4.47;;;;;;;6.17;62.83;98901.34;5087393;28;20047;-70
2023/12/20 08:49:53;;;;;;;7.13;4.20;;;;;;;6.16;62.33;98915.44;5088517;28;20170;-69
2023/12/20 08:52:20;;;;;;;4.93;4.10;;;;;;;6.16;62.17;98916.28;5088374;28;20047;-70
2023/12/20 08:54:46;;;;;;;6.00;4.22;;;;;;;5.96;62.30;98882.09;5088277;28;20040;-69
2023/12/20 08:57:14;;;;;;;5.95;4.40;;;;;;;6.09;62.47;98920.97;5088324;28;20088;-69
2023/12/20 08:59:41;;;;;;;5.40;4.03;;;;;;;6.07;62.58;98921.94;5088117;28;20115;-69
2023/12/20 09:02:07;;;;;;;6.40;4.63;;;;;;;6.05;62.53;98940.44;5088231;28;20044;-69
2023/12/20 09:04:34;;;;;;;5.90;4.05;;;;;;;5.92;62.74;98904.19;5088187;28;20097;-69
2023/12/20 09:07:01;;;;;;;6.18;3.95;;;;;;;5.90;62.65;98899.00;5087826;28;20040;-69
2023/12/20 09:09:28;;;;;;;5.20;3.75;;;;;;;6.05;62.81;98935.16;5086936;28;20036;-69
2023/12/20 09:11:55;;;;;;;4.55;3.60;;;;;;;6.01;63.20;98940.63;5087297;28;20046;-69
2023/12/20 09:14:23;;;;;;;4.88;4.32;;;;;;;6.01;63.53;98930.09;5087905;28;20074;-69
2023/12/20 09:16:51;;;;;;;4.72;4.22;;;;;;;6.00;63.33;98952.94;5087525;28;20319;-69
2023/12/20 09:19:17;;;;;;;5.82;3.15;;;;;;;6.00;63.94;98967.84;5087681;28;20059;-69
2023/12/20 09:21:44;;;;;;;4.35;3.60;;;;;;;5.92;64.54;98941.88;5087488;28;20056;-69
2023/12/20 09:24:11;;;;;;;5.38;3.75;;;;;;;5.97;64.79;98947.78;5087580;28;20044;-69
2023/12/20 09:26:39;;;;;;;3.95;3.35;;;;;;;5.96;65.42;98930.31;5087723;28;20112;-69
2023/12/20 09:29:07;;;;;;;4.93;3.28;;;;;;;5.96;65.38;98942.59;5087658;28;20174;-69
2023/12/20 09:31:37;;;;;;;4.18;3.10;;;;;;;5.73;65.33;98906.75;5087761;28;20053;-69
2023/12/20 09:34:04;;;;;;;4.05;2.92;;;;;;;5.92;65.59;98941.03;5087306;28;20178;-69
2023/12/20 09:36:34;;;;;;;4.57;2.80;;;;;;;5.91;65.62;98961.22;5087524;28;20090;-69
2023/12/20 09:39:01;;;;;;;4.75;3.13;;;;;;;5.92;65.61;98989.22;5087362;28;20060;-69
2023/12/20 09:41:31;;;;;;;3.10;2.30;;;;;;;5.84;66.14;98949.25;5087242;28;20265;-69
2023/12/20 09:44:03;;;;;;;3.10;2.40;;;;;;;5.86;66.38;98960.53;5087456;28;20094;-69
2023/12/20 09:46:33;;;;;;;3.70;2.55;;;;;;;5.20;66.54;98857.31;5086236;28;20060;-68
2023/12/20 09:49:02;;;;;;;4.05;2.67;;;;;;;5.80;67.13;98958.19;5086922;28;20044;-69
2023/12/20 09:51:30;;;;;;;3.70;3.08;;;;;;;5.76;67.19;98943.44;5086411;28;20047;-69
2023/12/20 09:53:57;;;;;;;3.45;2.70;;;;;;;5.71;67.60;98942.78;5087215;28;20315;-69
2023/12/20 09:56:26;;;;;;;3.20;2.40;;;;;;;5.67;68.07;98928.06;5087048;28;20044;-69
2023/12/20 09:58:54;;;;;;;3.30;2.63;;;;;;;5.63;68.24;98940.47;5087119;28;20055;-69
2023/12/20 10:01:22;;;;;;;4.05;2.67;;;;;;;5.55;69.02;98939.09;5086780;28;20048;-69
2023/12/20 10:03:48;;;;;;;3.90;3.00;;;;;;;5.57;69.07;98930.22;5087013;28;20101;-68
2023/12/20 10:06:16;;;;;;;3.65;2.75;;;;;;;5.54;69.75;98945.25;5087095;28;20320;-69
2023/12/20 10:08:43;;;;;;;4.18;3.17;;;;;;;5.48;69.66;98920.09;5087018;28;20044;-70
2023/12/20 10:11:10;;;;;;;4.00;3.38;;;;;;;5.51;69.95;98925.22;5086814;28;20045;-70
2023/12/20 10:13:40;;;;;;;4.07;2.90;;;;;;;5.54;69.66;98932.97;5085534;28;20040;-70
2023/12/20 10:16:07;;;;;;;3.80;3.35;;;;;;;5.26;70.16;98878.06;5087028;28;20048;-70
2023/12/20 10:18:34;;;;;;;3.72;3.15;;;;;;;5.41;70.83;98913.38;5086771;28;20048;-70
2023/12/20 10:21:01;;;;;;;4.22;3.00;;;;;;;5.35;70.70;98911.00;5086726;28;20040;-70
2023/12/20 10:23:29;;;;;;;4.22;2.83;;;;;;;5.31;70.88;98899.75;5085243;28;20263;-70
2023/12/20 10:25:59;;;;;;;3.38;2.45;;;;;;;5.16;70.38;98870.63;5086594;28;20041;-70
2023/12/20 10:28:27;;;;;;;4.43;3.40;;;;;;;5.39;70.48;98913.44;5085957;28;20040;-70
2023/12/20 10:30:55;;;;;;;4.65;3.83;;;;;;;3.94;70.39;98660.28;5086449;28;20049;-70
2023/12/20 10:33:25;;;;;;;5.05;3.63;;;;;;;5.36;70.20;98910.06;5086172;28;20241;-70
2023/12/20 10:35:53;;;;;;;3.60;2.70;;;;;;;5.33;70.31;98966.25;5086022;28;20064;-70
2023/12/20 10:38:20;;;;;;;3.63;3.00;;;;;;;5.18;70.08;98874.91;5086229;28;20051;-70
2023/12/20 10:40:48;;;;;;;4.55;2.85;;;;;;;5.34;70.35;98885.63;5085728;28;20040;-70
2023/12/20 10:43:16;;;;;;;4.25;2.85;;;;;;;5.34;70.79;98906.66;5086300;28;20102;-70
2023/12/20 10:45:43;;;;;;;3.40;2.70;;;;;;;5.34;70.28;98889.13;5086177;28;20105;-70
2023/12/20 10:48:11;;;;;;;3.75;2.53;;;;;;;4.63;70.54;98766.81;5086451;28;20064;-71
2023/12/20 10:50:39;;;;;;;3.38;2.88;;;;;;;5.34;70.61;98891.75;5085802;28;20040;-70
2023/12/20 10:53:08;;;;;;;4.10;3.00;;;;;;;5.33;70.66;98878.66;5085943;28;20044;-69
2023/12/20 10:55:35;;;;;;;3.40;2.67;;;;;;;5.34;70.43;98875.97;5086136;28;20063;-70
2023/12/20 10:58:07;;;;;;;3.47;2.90;;;;;;;5.33;70.60;98868.16;5086007;28;20155;-70
2023/12/20 11:00:36;;;;;;;3.60;2.80;;;;;;;5.36;70.40;98873.28;5086267;28;20192;-70
2023/12/20 11:03:03;;;;;;;3.15;2.40;;;;;;;5.39;70.36;98886.31;5085993;28;20051;-70
2023/12/20 11:05:39;;;;;;;3.63;3.22;;;;;;;5.36;70.55;98883.81;5085675;28;20108;-69
2023/12/20 11:08:11;;;;;;;3.85;3.08;;;;;;;5.40;70.18;98867.84;5086177;28;20111;-70
2023/12/20 11:10:46;;;;;;;3.80;3.10;;;;;;;5.39;70.90;98847.72;5085916;28;20036;-70
2023/12/20 11:13:21;;;;;;;3.70;3.17;;;;;;;5.44;70.44;98864.16;5085712;28;20048;-70
2023/12/20 11:15:48;;;;;;;3.90;3.05;;;;;;;4.08;70.43;98632.59;5085538;28;20044;-70
2023/12/20 11:18:16;;;;;;;3.60;2.83;;;;;;;5.45;70.48;98844.84;5085898;28;20052;-70
2023/12/20 11:20:43;;;;;;;3.50;2.80;;;;;;;5.45;70.39;98841.38;5085811;28;20094;-69
2023/12/20 11:23:10;;;;;;;3.78;2.95;;;;;;;5.28;70.78;98821.06;5085547;28;20063;-70
2023/12/20 11:25:53;;;;;;;4.07;2.60;;;;;;;5.52;70.32;98842.81;5085209;28;20312;-70
2023/12/20 11:28:24;;;;;;;3.55;2.63;;;;;;;5.52;70.48;98841.97;5083632;28;20057;-70
2023/12/20 11:30:52;;;;;;;3.75;2.78;;;;;;;5.51;70.78;98833.22;5085383;28;20106;-69
2023/12/20 11:33:23;;;;;;;3.00;2.42;;;;;;;5.51;70.66;98843.72;5085572;28;20235;-70
2023/12/20 11:35:49;;;;;;;3.40;2.75;;;;;;;5.54;70.45;98832.22;5085282;28;20055;-69